Aviation Digital Data Service (ADDS)

Output produced by METARs form (2102 UTC 20 August 2019)
found at http://www.aviationweather.gov/metar/data/
 
METAR text: RJSH 201807Z 11005KT 080V140 3000 -DZ BR FEW002 BKN004 OVC008 20/20 Q1009 RMK 2ST002 5ST004 8ST008 A2981
Conditions at: RJSH (HACHINOHE (JMSDF, JP) observed 1807 UTC 20 August 2019
Temperature: 20.0°C (68°F)
Dewpoint: 20.0°C (68°F) [RH = 100%]
Pressure (altimeter): 29.79 inches Hg (1009.0 mb)
Winds: from the ESE (110 degrees) at 6 MPH (5 knots; 2.6 m/s)
Visibility: 1.86 miles (2.99 km)
Ceiling: 400 feet AGL
Clouds: few clouds at 200 feet AGL
broken clouds at 400 feet AGL
overcast cloud deck at 800 feet AGL
Weather: -DZ BR  (light drizzle, mist)

METAR text: RJSH 201747Z 34003KT 310V010 4000 BR FEW003 BKN008 OVC012 20/20 Q1009 RMK 2ST003 5ST008 8ST012 A2981
Conditions at: RJSH (HACHINOHE (JMSDF, JP) observed 1747 UTC 20 August 2019
Temperature: 20.0°C (68°F)
Dewpoint: 20.0°C (68°F) [RH = 100%]
Pressure (altimeter): 29.79 inches Hg (1009.0 mb)
Winds: from the NNW (340 degrees) at 3 MPH (3 knots; 1.5 m/s)
Visibility: 2.49 miles (4.01 km)
Ceiling: 800 feet AGL
Clouds: few clouds at 300 feet AGL
broken clouds at 800 feet AGL
overcast cloud deck at 1200 feet AGL
Weather: BR  (mist)

METAR text: RJSH 201631Z VRB01KT 4900 BR FEW003 BKN012 BKN020 21/20 Q1009 RMK 1ST003 5ST012 7CU020 A2981
Conditions at: RJSH (HACHINOHE (JMSDF, JP) observed 1631 UTC 20 August 2019
Temperature: 21.0°C (70°F)
Dewpoint: 20.0°C (68°F) [RH = 94%]
Pressure (altimeter): 29.79 inches Hg (1009.0 mb)
Winds: variable direction winds at 1 MPH (1 knots; 0.5 m/s)
Visibility: 3 miles ( 5 km)
Ceiling: 1200 feet AGL
Clouds: few clouds at 300 feet AGL
broken clouds at 1200 feet AGL
broken clouds at 2000 feet AGL
Weather: BR  (mist)

METAR text: RJSH 200703Z 11004KT 5000 -SHRA BR FEW008 SCT015 OVC030 21/21 Q1010 RMK 2ST008 4CU015 8CU030 A2983
Conditions at: RJSH (HACHINOHE (JMSDF, JP) observed 0703 UTC 20 August 2019
Temperature: 21.0°C (70°F)
Dewpoint: 21.0°C (70°F) [RH = 100%]
Pressure (altimeter): 29.82 inches Hg (1010.0 mb)
Winds: from the ESE (110 degrees) at 5 MPH (4 knots; 2.1 m/s)
Visibility: 3 miles ( 5 km)
Ceiling: 3000 feet AGL
Clouds: few clouds at 800 feet AGL
scattered clouds at 1500 feet AGL
overcast cloud deck at 3000 feet AGL
Weather: -SHRA BR  (light rain showers, mist)

METAR text: RJSH 200625Z 17003KT 130V220 4500 -SHRA BR SCT008 SCT015 OVC030 21/21 Q1010 RMK 3ST008 4CU015 8CU030 A2983
Conditions at: RJSH (HACHINOHE (JMSDF, JP) observed 0625 UTC 20 August 2019
Temperature: 21.0°C (70°F)
Dewpoint: 21.0°C (70°F) [RH = 100%]
Pressure (altimeter): 29.82 inches Hg (1010.0 mb)
Winds: from the S (170 degrees) at 3 MPH (3 knots; 1.5 m/s)
Visibility: 2.80 miles (4.51 km)
Ceiling: 3000 feet AGL
Clouds: scattered clouds at 800 feet AGL
scattered clouds at 1500 feet AGL
overcast cloud deck at 3000 feet AGL
Weather: -SHRA BR  (light rain showers, mist)

METAR text: RJSH 200618Z 14003KT 100V180 4900 SHRA BR SCT008 SCT015 OVC030 21/21 Q1010 RMK 3ST008 4CU015 8CU030 A2983
Conditions at: RJSH (HACHINOHE (JMSDF, JP) observed 0618 UTC 20 August 2019
Temperature: 21.0°C (70°F)
Dewpoint: 21.0°C (70°F) [RH = 100%]
Pressure (altimeter): 29.82 inches Hg (1010.0 mb)
Winds: from the SE (140 degrees) at 3 MPH (3 knots; 1.5 m/s)
Visibility: 3 miles ( 5 km)
Ceiling: 3000 feet AGL
Clouds: scattered clouds at 800 feet AGL
scattered clouds at 1500 feet AGL
overcast cloud deck at 3000 feet AGL
Weather: SHRA BR  (rain showers, mist)

METAR text: RJSH 200109Z 14008KT 110V170 5000 -SHRA BR SCT008 BKN015 OVC030 21/20 Q1011 RMK 3ST008 6SC015 8CU030 A2988
Conditions at: RJSH (HACHINOHE (JMSDF, JP) observed 0109 UTC 20 August 2019
Temperature: 21.0°C (70°F)
Dewpoint: 20.0°C (68°F) [RH = 94%]
Pressure (altimeter): 29.85 inches Hg (1011.0 mb)
Winds: from the SE (140 degrees) at 9 MPH (8 knots; 4.1 m/s)
Visibility: 3 miles ( 5 km)
Ceiling: 1500 feet AGL
Clouds: scattered clouds at 800 feet AGL
broken clouds at 1500 feet AGL
overcast cloud deck at 3000 feet AGL
Weather: -SHRA BR  (light rain showers, mist)

METAR text: RJSH 200011Z 13010KT 4000 -RA BR FEW004 SCT008 OVC015 20/20 Q1012 RMK 1ST004 4ST008 8SC015 A2989
Conditions at: RJSH (HACHINOHE (JMSDF, JP) observed 0011 UTC 20 August 2019
Temperature: 20.0°C (68°F)
Dewpoint: 20.0°C (68°F) [RH = 100%]
Pressure (altimeter): 29.88 inches Hg (1012.0 mb)
Winds: from the SE (130 degrees) at 12 MPH (10 knots; 5.1 m/s)
Visibility: 2.49 miles (4.01 km)
Ceiling: 1500 feet AGL
Clouds: few clouds at 400 feet AGL
scattered clouds at 800 feet AGL
overcast cloud deck at 1500 feet AGL
Weather: -RA BR  (light rain, mist)

METAR text: RJSH 192350Z 13015G25KT 3500 RA BR FEW004 BKN008 OVC015 20/20 Q1012 RMK 2ST004 6ST008 8SC015 A2989
Conditions at: RJSH (HACHINOHE (JMSDF, JP) observed 2350 UTC 19 August 2019
Temperature: 20.0°C (68°F)
Dewpoint: 20.0°C (68°F) [RH = 100%]
Pressure (altimeter): 29.88 inches Hg (1012.0 mb)
Winds: from the SE (130 degrees) at 17 MPH (15 knots; 7.7 m/s)
gusting to 29 MPH (25 knots; 12.9 m/s)
Visibility: 2.17 miles (3.49 km)
Ceiling: 800 feet AGL
Clouds: few clouds at 400 feet AGL
broken clouds at 800 feet AGL
overcast cloud deck at 1500 feet AGL
Weather: RA BR  (moderate rain, mist)

METAR text: RJSH 192341Z 12015G25KT 3200 -RA BR FEW004 BKN008 OVC015 20/20 Q1012 RMK 2ST004 6ST008 8SC015 A2988
Conditions at: RJSH (HACHINOHE (JMSDF, JP) observed 2341 UTC 19 August 2019
Temperature: 20.0°C (68°F)
Dewpoint: 20.0°C (68°F) [RH = 100%]
Pressure (altimeter): 29.88 inches Hg (1012.0 mb)
Winds: from the ESE (120 degrees) at 17 MPH (15 knots; 7.7 m/s)
gusting to 29 MPH (25 knots; 12.9 m/s)
Visibility: 1.99 miles (3.20 km)
Ceiling: 800 feet AGL
Clouds: few clouds at 400 feet AGL
broken clouds at 800 feet AGL
overcast cloud deck at 1500 feet AGL
Weather: -RA BR  (light rain, mist)

METAR text: RJSH 192250Z 11012KT 3200 -RA BR FEW004 BKN008 OVC015 20/20 Q1013 RMK 2ST004 6ST008 8SC015 A2992
Conditions at: RJSH (HACHINOHE (JMSDF, JP) observed 2250 UTC 19 August 2019
Temperature: 20.0°C (68°F)
Dewpoint: 20.0°C (68°F) [RH = 100%]
Pressure (altimeter): 29.91 inches Hg (1013.0 mb)
Winds: from the ESE (110 degrees) at 14 MPH (12 knots; 6.2 m/s)
Visibility: 1.99 miles (3.20 km)
Ceiling: 800 feet AGL
Clouds: few clouds at 400 feet AGL
broken clouds at 800 feet AGL
overcast cloud deck at 1500 feet AGL
Weather: -RA BR  (light rain, mist)

METAR text: RJSH 192238Z 11014KT 3200 RA BR FEW004 BKN008 OVC015 20/20 Q1012 RMK 2ST004 6ST008 8SC015 A2991
Conditions at: RJSH (HACHINOHE (JMSDF, JP) observed 2238 UTC 19 August 2019
Temperature: 20.0°C (68°F)
Dewpoint: 20.0°C (68°F) [RH = 100%]
Pressure (altimeter): 29.88 inches Hg (1012.0 mb)
Winds: from the ESE (110 degrees) at 16 MPH (14 knots; 7.2 m/s)
Visibility: 1.99 miles (3.20 km)
Ceiling: 800 feet AGL
Clouds: few clouds at 400 feet AGL
broken clouds at 800 feet AGL
overcast cloud deck at 1500 feet AGL
Weather: RA BR  (moderate rain, mist)

METAR text: RJSH 192151Z 12010KT 2500 RA BR FEW004 BKN008 OVC012 20/20 Q1013 RMK 2ST004 5ST008 8ST012 A2993
Conditions at: RJSH (HACHINOHE (JMSDF, JP) observed 2151 UTC 19 August 2019
Temperature: 20.0°C (68°F)
Dewpoint: 20.0°C (68°F) [RH = 100%]
Pressure (altimeter): 29.91 inches Hg (1013.0 mb)
Winds: from the ESE (120 degrees) at 12 MPH (10 knots; 5.1 m/s)
Visibility: 1.55 miles (2.49 km)
Ceiling: 800 feet AGL
Clouds: few clouds at 400 feet AGL
broken clouds at 800 feet AGL
overcast cloud deck at 1200 feet AGL
Weather: RA BR  (moderate rain, mist)

METAR text: RJSH 192133Z 11008KT 2500 +RA BR SCT004 BKN008 OVC012 20/20 Q1013 RMK 3ST004 6ST008 8ST012 A2992
Conditions at: RJSH (HACHINOHE (JMSDF, JP) observed 2133 UTC 19 August 2019
Temperature: 20.0°C (68°F)
Dewpoint: 20.0°C (68°F) [RH = 100%]
Pressure (altimeter): 29.91 inches Hg (1013.0 mb)
Winds: from the ESE (110 degrees) at 9 MPH (8 knots; 4.1 m/s)
Visibility: 1.55 miles (2.49 km)
Ceiling: 800 feet AGL
Clouds: scattered clouds at 400 feet AGL
broken clouds at 800 feet AGL
overcast cloud deck at 1200 feet AGL
Weather: +RA BR  (heavy rain, mist)

METAR text: RJSH 192130Z 11008KT 2500 RA BR SCT004 BKN008 OVC012 20/20 Q1013 RMK 3ST004 6ST008 8ST012 A2992
Conditions at: RJSH (HACHINOHE (JMSDF, JP) observed 2130 UTC 19 August 2019
Temperature: 20.0°C (68°F)
Dewpoint: 20.0°C (68°F) [RH = 100%]
Pressure (altimeter): 29.91 inches Hg (1013.0 mb)
Winds: from the ESE (110 degrees) at 9 MPH (8 knots; 4.1 m/s)
Visibility: 1.55 miles (2.49 km)
Ceiling: 800 feet AGL
Clouds: scattered clouds at 400 feet AGL
broken clouds at 800 feet AGL
overcast cloud deck at 1200 feet AGL
Weather: RA BR  (moderate rain, mist)

METAR text: RJSH 192119Z 11009KT 090V150 3000 -RA BR FEW003 SCT005 OVC008 20/20 Q1013 RMK 1ST003 4ST005 8ST008 A2993
Conditions at: RJSH (HACHINOHE (JMSDF, JP) observed 2119 UTC 19 August 2019
Temperature: 20.0°C (68°F)
Dewpoint: 20.0°C (68°F) [RH = 100%]
Pressure (altimeter): 29.91 inches Hg (1013.0 mb)
Winds: from the ESE (110 degrees) at 10 MPH (9 knots; 4.6 m/s)
Visibility: 1.86 miles (2.99 km)
Ceiling: 800 feet AGL
Clouds: few clouds at 300 feet AGL
scattered clouds at 500 feet AGL
overcast cloud deck at 800 feet AGL
Weather: -RA BR  (light rain, mist)

METAR text: RJSH 192039Z 12008KT 090V150 2400 RA BR FEW003 BKN005 OVC008 20/20 Q1013 RMK 2ST003 5ST005 8ST008 A2993
Conditions at: RJSH (HACHINOHE (JMSDF, JP) observed 2039 UTC 19 August 2019
Temperature: 20.0°C (68°F)
Dewpoint: 20.0°C (68°F) [RH = 100%]
Pressure (altimeter): 29.91 inches Hg (1013.0 mb)
Winds: from the ESE (120 degrees) at 9 MPH (8 knots; 4.1 m/s)
Visibility: 1.49 miles (2.40 km)
Ceiling: 500 feet AGL
Clouds: few clouds at 300 feet AGL
broken clouds at 500 feet AGL
overcast cloud deck at 800 feet AGL
Weather: RA BR  (moderate rain, mist)

METAR text: RJSH 192034Z 12010KT 2300 +RA BR FEW002 BKN005 OVC008 20/20 Q1013 RMK 2ST002 5ST005 8ST008 A2993
Conditions at: RJSH (HACHINOHE (JMSDF, JP) observed 2034 UTC 19 August 2019
Temperature: 20.0°C (68°F)
Dewpoint: 20.0°C (68°F) [RH = 100%]
Pressure (altimeter): 29.91 inches Hg (1013.0 mb)
Winds: from the ESE (120 degrees) at 12 MPH (10 knots; 5.1 m/s)
Visibility: 1.43 miles (2.30 km)
Ceiling: 500 feet AGL
Clouds: few clouds at 200 feet AGL
broken clouds at 500 feet AGL
overcast cloud deck at 800 feet AGL
Weather: +RA BR  (heavy rain, mist)

METAR text: RJSH 192026Z 11009KT 3000 RA BR SCT003 BKN007 OVC015 20/20 Q1013 RMK 4ST003 6ST007 8SC015 A2993
Conditions at: RJSH (HACHINOHE (JMSDF, JP) observed 2026 UTC 19 August 2019
Temperature: 20.0°C (68°F)
Dewpoint: 20.0°C (68°F) [RH = 100%]
Pressure (altimeter): 29.91 inches Hg (1013.0 mb)
Winds: from the ESE (110 degrees) at 10 MPH (9 knots; 4.6 m/s)
Visibility: 1.86 miles (2.99 km)
Ceiling: 700 feet AGL
Clouds: scattered clouds at 300 feet AGL
broken clouds at 700 feet AGL
overcast cloud deck at 1500 feet AGL
Weather: RA BR  (moderate rain, mist)

METAR text: RJSH 192006Z 11011KT 3000 -RA BR SCT003 BKN007 OVC015 20/20 Q1013 RMK 4ST003 6ST007 8SC015 A2993
Conditions at: RJSH (HACHINOHE (JMSDF, JP) observed 2006 UTC 19 August 2019
Temperature: 20.0°C (68°F)
Dewpoint: 20.0°C (68°F) [RH = 100%]
Pressure (altimeter): 29.91 inches Hg (1013.0 mb)
Winds: from the ESE (110 degrees) at 13 MPH (11 knots; 5.7 m/s)
Visibility: 1.86 miles (2.99 km)
Ceiling: 700 feet AGL
Clouds: scattered clouds at 300 feet AGL
broken clouds at 700 feet AGL
overcast cloud deck at 1500 feet AGL
Weather: -RA BR  (light rain, mist)

METAR text: RJSH 191943Z 11010KT 3100 RA BR SCT003 BKN008 OVC015 20/20 Q1013 RMK 3ST003 6ST008 8SC015 A2993
Conditions at: RJSH (HACHINOHE (JMSDF, JP) observed 1943 UTC 19 August 2019
Temperature: 20.0°C (68°F)
Dewpoint: 20.0°C (68°F) [RH = 100%]
Pressure (altimeter): 29.91 inches Hg (1013.0 mb)
Winds: from the ESE (110 degrees) at 12 MPH (10 knots; 5.1 m/s)
Visibility: 1.93 miles (3.11 km)
Ceiling: 800 feet AGL
Clouds: scattered clouds at 300 feet AGL
broken clouds at 800 feet AGL
overcast cloud deck at 1500 feet AGL
Weather: RA BR  (moderate rain, mist)

METAR text: RJSH 191928Z 11009KT 080V140 4900 -RA BR FEW003 BKN008 OVC020 20/20 Q1013 RMK 2ST003 6ST008 8SC020 A2992
Conditions at: RJSH (HACHINOHE (JMSDF, JP) observed 1928 UTC 19 August 2019
Temperature: 20.0°C (68°F)
Dewpoint: 20.0°C (68°F) [RH = 100%]
Pressure (altimeter): 29.91 inches Hg (1013.0 mb)
Winds: from the ESE (110 degrees) at 10 MPH (9 knots; 4.6 m/s)
Visibility: 3 miles ( 5 km)
Ceiling: 800 feet AGL
Clouds: few clouds at 300 feet AGL
broken clouds at 800 feet AGL
overcast cloud deck at 2000 feet AGL
Weather: -RA BR  (light rain, mist)

METAR text: RJSH 191847Z COR 11009KT 9999 -RA FEW004 BKN009 OVC025 21/20 Q1013 RMK 2ST004 6ST009 8SC025 A2992
Conditions at: RJSH (HACHINOHE (JMSDF, JP) observed 1847 UTC 19 August 2019
Temperature: 21.0°C (70°F)
Dewpoint: 20.0°C (68°F) [RH = 94%]
Pressure (altimeter): 29.91 inches Hg (1013.0 mb)
Winds: from the ESE (110 degrees) at 10 MPH (9 knots; 4.6 m/s)
Visibility: 6 or more miles (10+ km)
Ceiling: 900 feet AGL
Clouds: few clouds at 400 feet AGL
broken clouds at 900 feet AGL
overcast cloud deck at 2500 feet AGL
Weather: -RA  (light rain)

METAR text: RJSH 191535Z 12010KT 080V150 9999 -RA FEW006 BKN012 OVC025 21/20 Q1013 RMK 2ST006 5ST012 8SC025 A2993
Conditions at: RJSH (HACHINOHE (JMSDF, JP) observed 1535 UTC 19 August 2019
Temperature: 21.0°C (70°F)
Dewpoint: 20.0°C (68°F) [RH = 94%]
Pressure (altimeter): 29.91 inches Hg (1013.0 mb)
Winds: from the ESE (120 degrees) at 12 MPH (10 knots; 5.1 m/s)
Visibility: 6 or more miles (10+ km)
Ceiling: 1200 feet AGL
Clouds: few clouds at 600 feet AGL
broken clouds at 1200 feet AGL
overcast cloud deck at 2500 feet AGL
Weather: -RA  (light rain)

METAR text: RJSH 191409Z 12010KT 9999 FEW004 SCT007 BKN015 21/20 Q1013 RMK 1ST004 4ST007 7ST015 A2994
Conditions at: RJSH (HACHINOHE (JMSDF, JP) observed 1409 UTC 19 August 2019
Temperature: 21.0°C (70°F)
Dewpoint: 20.0°C (68°F) [RH = 94%]
Pressure (altimeter): 29.91 inches Hg (1013.0 mb)
Winds: from the ESE (120 degrees) at 12 MPH (10 knots; 5.1 m/s)
Visibility: 6 or more miles (10+ km)
Ceiling: 1500 feet AGL
Clouds: few clouds at 400 feet AGL
scattered clouds at 700 feet AGL
broken clouds at 1500 feet AGL
Weather: no significant weather observed at this time

METAR text: RJSH 191105Z 13011KT 9999 BKN007 OVC012 22/20 Q1013 RMK 5ST007 8ST012 A2994
Conditions at: RJSH (HACHINOHE (JMSDF, JP) observed 1105 UTC 19 August 2019
Temperature: 22.0°C (72°F)
Dewpoint: 20.0°C (68°F) [RH = 88%]
Pressure (altimeter): 29.91 inches Hg (1013.0 mb)
Winds: from the SE (130 degrees) at 13 MPH (11 knots; 5.7 m/s)
Visibility: 6 or more miles (10+ km)
Ceiling: 700 feet AGL
Clouds: broken clouds at 700 feet AGL
overcast cloud deck at 1200 feet AGL
Weather: no significant weather observed at this time

METAR text: RJSH 190951Z 11010KT 9999 FEW008 BKN012 BKN025 22/21 Q1013 RMK 2ST008 5ST012 7SC025 A2992
Conditions at: RJSH (HACHINOHE (JMSDF, JP) observed 0951 UTC 19 August 2019
Temperature: 22.0°C (72°F)
Dewpoint: 21.0°C (70°F) [RH = 94%]
Pressure (altimeter): 29.91 inches Hg (1013.0 mb)
Winds: from the ESE (110 degrees) at 12 MPH (10 knots; 5.1 m/s)
Visibility: 6 or more miles (10+ km)
Ceiling: 1200 feet AGL
Clouds: few clouds at 800 feet AGL
broken clouds at 1200 feet AGL
broken clouds at 2500 feet AGL
Weather: no significant weather observed at this time